createdAt,value
2022-11-20T00:01:59.009Z,67.25
2022-11-20T00:04:29.508Z,67.18
2022-11-20T00:06:56.797Z,70.28
2022-11-20T00:09:24.389Z,71.45
2022-11-20T00:11:53.493Z,68.78
2022-11-20T00:14:20.894Z,74.63
2022-11-20T00:16:51.451Z,72.38
2022-11-20T00:19:19.040Z,73.75
2022-11-20T00:21:46.585Z,70.63
2022-11-20T00:24:14.674Z,65.50
2022-11-20T00:26:41.901Z,80.57
2022-11-20T00:29:10.913Z,65.95
2022-11-20T00:31:38.380Z,77.03
2022-11-20T00:34:05.824Z,85.10
2022-11-20T00:36:35.020Z,77.00
2022-11-20T00:39:02.796Z,69.95
2022-11-20T00:41:31.084Z,78.95
2022-11-20T00:44:01.152Z,75.72
2022-11-20T00:46:32.260Z,82.05
2022-11-20T00:48:59.641Z,75.00
2022-11-20T00:51:29.165Z,74.95
2022-11-20T00:54:01.024Z,70.90
2022-11-20T00:56:30.998Z,73.75
2022-11-20T00:59:02.026Z,74.63
2022-11-20T01:01:30.500Z,69.40
2022-11-20T01:04:00.889Z,75.43
2022-11-20T01:06:36.889Z,80.03
2022-11-20T01:09:08.736Z,79.28
2022-11-20T01:11:40.117Z,77.15
2022-11-20T01:14:11.303Z,84.32
2022-11-20T01:16:41.709Z,75.57
2022-11-20T01:19:17.379Z,83.30
2022-11-20T01:21:50.292Z,78.85
2022-11-20T01:24:21.952Z,83.70
2022-11-20T01:26:51.805Z,81.43
2022-11-20T01:29:25.579Z,77.85
2022-11-20T01:31:53.654Z,76.28
2022-11-20T01:34:23.960Z,83.45
2022-11-20T01:36:54.496Z,79.97
2022-11-20T01:39:26.384Z,78.88
2022-11-20T01:42:15.140Z,76.10
2022-11-20T01:44:53.280Z,84.70
2022-11-20T01:47:35.825Z,82.68
2022-11-20T01:50:11.820Z,83.43
2022-11-20T01:52:47.484Z,79.60
2022-11-20T01:55:22.955Z,93.03
2022-11-20T01:57:53.045Z,84.97
2022-11-20T02:00:21.973Z,83.60
2022-11-20T02:02:54.504Z,87.00
2022-11-20T02:05:28.534Z,83.00
2022-11-20T02:07:58.944Z,93.50
2022-11-20T02:10:27.968Z,81.35
2022-11-20T02:13:14.221Z,91.00
2022-11-20T02:15:46.834Z,84.57
2022-11-20T02:18:18.400Z,89.18
2022-11-20T02:20:48.684Z,89.80
2022-11-20T02:23:46.032Z,82.90
2022-11-20T02:26:16.784Z,84.70
2022-11-20T02:31:13.305Z,88.40
2022-11-20T02:33:40.521Z,88.25
2022-11-20T02:36:14.709Z,87.80
2022-11-20T02:38:44.054Z,80.00
2022-11-20T02:41:13.528Z,85.95
2022-11-20T02:43:40.577Z,90.95
2022-11-20T02:46:09.053Z,78.07
2022-11-20T02:48:38.436Z,88.43
2022-11-20T02:51:05.842Z,91.18
2022-11-20T02:53:33.011Z,83.45
2022-11-20T02:56:02.959Z,77.95
2022-11-20T02:58:30.018Z,86.57
2022-11-20T03:00:57.537Z,79.70
2022-11-20T03:03:24.696Z,93.30
2022-11-20T03:05:52.082Z,93.70
2022-11-20T03:08:19.222Z,89.28
2022-11-20T03:10:46.619Z,81.40
2022-11-20T03:13:13.667Z,90.70
2022-11-20T03:15:41.036Z,89.05
2022-11-20T03:18:08.138Z,80.60
2022-11-20T03:20:35.617Z,80.28
2022-11-20T03:23:02.851Z,92.25
2022-11-20T03:25:32.632Z,88.40
2022-11-20T03:27:59.696Z,85.75
2022-11-20T03:30:30.875Z,79.43
2022-11-20T03:32:58.164Z,88.05
2022-11-20T03:35:25.584Z,83.35
2022-11-20T03:37:52.787Z,82.85
2022-11-20T03:40:20.188Z,86.60
2022-11-20T03:42:47.312Z,87.72
2022-11-20T03:45:16.790Z,84.45
2022-11-20T03:47:46.992Z,80.85
2022-11-20T03:50:19.701Z,86.95
2022-11-20T03:52:46.809Z,82.03
2022-11-20T03:55:16.564Z,94.35
2022-11-20T03:57:43.761Z,89.18
2022-11-20T04:00:11.726Z,95.80
2022-11-20T04:02:41.105Z,82.45
2022-11-20T04:05:13.036Z,83.45
2022-11-20T04:07:40.113Z,86.35
2022-11-20T04:10:07.909Z,93.13
2022-11-20T04:12:37.601Z,86.20
2022-11-20T04:15:08.312Z,90.65
2022-11-20T04:17:37.991Z,81.80
2022-11-20T04:20:10.597Z,85.05
2022-11-20T04:22:37.732Z,79.85
2022-11-20T04:25:05.506Z,88.95
2022-11-20T04:27:34.788Z,83.15
2022-11-20T04:30:02.232Z,84.20
2022-11-20T04:32:31.493Z,77.93
2022-11-20T04:34:58.929Z,78.70
2022-11-20T04:37:28.472Z,78.15
2022-11-20T04:39:56.008Z,88.47
2022-11-20T04:42:32.067Z,84.50
2022-11-20T04:45:01.925Z,81.28
2022-11-20T04:47:29.040Z,86.05
2022-11-20T04:49:56.521Z,89.22
2022-11-20T04:52:26.040Z,87.20
2022-11-20T04:54:55.843Z,84.10
2022-11-20T04:57:23.057Z,84.93
2022-11-20T04:59:50.425Z,83.13
2022-11-20T05:02:21.091Z,86.10
2022-11-20T05:04:53.091Z,78.03
2022-11-20T05:07:20.220Z,83.85
2022-11-20T05:09:49.744Z,86.85
2022-11-20T05:12:19.530Z,82.45
2022-11-20T05:14:49.017Z,91.15
2022-11-20T05:17:22.975Z,90.15
2022-11-20T05:19:53.112Z,96.65
2022-11-20T05:22:20.621Z,88.13
2022-11-20T05:24:47.940Z,90.53
2022-11-20T05:27:15.142Z,94.00
2022-11-20T05:29:42.505Z,85.88
2022-11-20T05:32:11.785Z,99.57
2022-11-20T05:34:41.656Z,95.40
2022-11-20T05:37:11.293Z,94.95
2022-11-20T05:39:40.892Z,94.03
2022-11-20T05:42:26.852Z,91.90
2022-11-20T05:44:54.276Z,94.35
2022-11-20T05:47:21.429Z,94.07
2022-11-20T05:49:48.866Z,98.60
2022-11-20T05:52:15.899Z,94.30
2022-11-20T05:54:48.133Z,92.50
2022-11-20T05:57:15.926Z,101.05
2022-11-20T05:59:43.665Z,101.05
2022-11-20T06:02:10.809Z,108.78
2022-11-20T06:04:39.949Z,95.93
2022-11-20T06:07:09.796Z,94.82
2022-11-20T06:09:37.233Z,97.32
2022-11-20T06:12:04.632Z,96.07
2022-11-20T06:14:32.223Z,102.72
2022-11-20T06:16:59.446Z,101.97
2022-11-20T06:19:33.864Z,98.53
2022-11-20T06:22:05.912Z,102.22
2022-11-20T06:24:33.259Z,112.03
2022-11-20T06:27:00.337Z,107.30
2022-11-20T06:29:31.415Z,101.10
2022-11-20T06:32:01.108Z,99.82
2022-11-20T06:34:28.616Z,100.40
2022-11-20T06:36:55.717Z,109.60
2022-11-20T06:39:25.361Z,112.18
2022-11-20T06:41:58.396Z,106.93
2022-11-20T06:44:29.257Z,105.70
2022-11-20T06:46:56.433Z,98.85
2022-11-20T06:49:24.040Z,104.00
2022-11-20T06:51:53.648Z,107.47
2022-11-20T06:54:21.212Z,106.13
2022-11-20T06:56:49.113Z,106.30
2022-11-20T06:59:16.491Z,106.18
2022-11-20T07:01:45.876Z,101.75
2022-11-20T07:04:17.517Z,90.13
2022-11-20T07:06:46.829Z,102.35
2022-11-20T07:09:16.240Z,103.37
2022-11-20T07:11:43.290Z,102.50
2022-11-20T07:14:11.452Z,109.95
2022-11-20T07:16:38.647Z,101.20
2022-11-20T07:19:08.584Z,98.22
2022-11-20T07:21:40.680Z,107.13
2022-11-20T07:24:08.083Z,101.95
2022-11-20T07:26:37.388Z,113.30
2022-11-20T07:29:04.904Z,108.82
2022-11-20T07:31:32.026Z,102.28
2022-11-20T07:34:01.821Z,111.38
2022-11-20T07:36:28.874Z,112.95
2022-11-20T07:38:58.360Z,93.43
2022-11-20T07:41:30.164Z,101.03
2022-11-20T07:43:57.480Z,103.35
2022-11-20T07:46:29.397Z,104.80
2022-11-20T07:48:59.125Z,98.03
2022-11-20T07:51:27.005Z,102.45
2022-11-20T07:53:54.436Z,104.43
2022-11-20T07:56:23.945Z,102.55
2022-11-20T07:58:51.285Z,94.35
2022-11-20T08:01:21.247Z,102.75
2022-11-20T08:03:51.155Z,101.10
2022-11-20T08:06:19.565Z,102.72
2022-11-20T08:08:49.433Z,104.00
2022-11-20T08:11:37.235Z,97.15
2022-11-20T08:14:14.527Z,102.03
2022-11-20T08:16:43.784Z,115.65
2022-11-20T08:19:12.652Z,107.25
2022-11-20T08:21:44.452Z,94.13
2022-11-20T08:24:14.472Z,106.03
2022-11-20T08:26:42.070Z,100.22
2022-11-20T08:29:09.630Z,106.13
2022-11-20T08:31:37.197Z,94.93
2022-11-20T08:34:26.771Z,86.68
2022-11-20T08:36:56.198Z,99.03
2022-11-20T08:39:23.894Z,109.90
2022-11-20T08:41:53.532Z,105.07
2022-11-20T08:44:24.827Z,96.88
2022-11-20T08:46:51.904Z,89.18
2022-11-20T08:49:22.860Z,91.07
2022-11-20T08:51:54.653Z,90.50
2022-11-20T08:54:22.986Z,82.38
2022-11-20T08:56:50.246Z,80.63
2022-11-20T08:59:31.619Z,75.85
2022-11-20T09:02:04.775Z,80.03
2022-11-20T09:04:34.397Z,76.53
2022-11-20T09:07:04.264Z,80.10
2022-11-20T09:09:34.414Z,83.03
2022-11-20T09:12:01.530Z,70.90
2022-11-20T09:14:31.023Z,72.68
2022-11-20T09:16:58.665Z,76.03
2022-11-20T09:19:36.438Z,78.03
2022-11-20T09:22:04.097Z,77.18
2022-11-20T09:24:38.984Z,78.65
2022-11-20T09:27:06.324Z,70.18
2022-11-20T09:29:33.702Z,74.80
2022-11-20T09:32:00.821Z,68.72
2022-11-20T09:34:28.793Z,74.10
2022-11-20T09:36:55.876Z,72.75
2022-11-20T09:39:23.603Z,71.07
2022-11-20T09:42:16.724Z,73.72
2022-11-20T09:45:03.296Z,66.47
2022-11-20T09:47:55.733Z,76.10
2022-11-20T09:50:50.380Z,74.85
2022-11-20T09:54:02.101Z,76.55
2022-11-20T09:56:37.724Z,74.13
2022-11-20T09:59:07.519Z,72.13
2022-11-20T10:01:41.731Z,80.65
2022-11-20T10:04:18.999Z,67.53
2022-11-20T10:07:38.059Z,75.72
2022-11-20T10:10:06.498Z,71.80
2022-11-20T10:13:03.428Z,56.42
2022-11-20T10:15:59.481Z,46.38
2022-11-20T10:18:46.306Z,48.85
2022-11-20T10:21:25.298Z,54.92
2022-11-20T10:24:24.917Z,49.28
2022-11-20T10:27:01.048Z,46.10
2022-11-20T10:29:35.743Z,54.95
2022-11-20T10:32:08.230Z,59.10
2022-11-20T10:34:53.198Z,71.50
2022-11-20T10:37:28.633Z,58.30
2022-11-20T10:40:04.350Z,66.68
2022-11-20T10:42:38.956Z,65.32
2022-11-20T10:45:40.613Z,55.05
2022-11-20T10:48:17.648Z,62.05
2022-11-20T10:50:56.418Z,59.05
2022-11-20T10:53:52.132Z,57.10
2022-11-20T10:56:35.960Z,54.60
2022-11-20T10:59:42.812Z,63.40
2022-11-20T11:02:35.177Z,58.45
2022-11-20T11:05:14.694Z,54.55
2022-11-20T11:07:49.982Z,51.20
2022-11-20T11:10:24.196Z,46.85
2022-11-20T11:12:53.807Z,49.20
2022-11-20T11:15:39.561Z,51.90
2022-11-20T11:18:11.269Z,62.35
2022-11-20T11:20:39.173Z,50.65
2022-11-20T11:23:42.462Z,49.08
2022-11-20T11:26:27.079Z,47.08
2022-11-20T11:29:05.541Z,46.95
2022-11-20T11:31:39.365Z,38.70
2022-11-20T11:34:15.293Z,41.72
2022-11-20T11:36:50.215Z,46.67
2022-11-20T11:39:22.905Z,44.75
2022-11-20T11:41:50.855Z,50.30
2022-11-20T11:44:43.949Z,60.88
2022-11-20T11:47:37.396Z,58.40
2022-11-20T11:50:10.666Z,48.03
2022-11-20T11:53:03.956Z,50.10
2022-11-20T11:55:53.259Z,59.80
2022-11-20T11:58:36.181Z,51.97
2022-11-20T12:01:32.880Z,54.90
2022-11-20T12:04:14.562Z,56.67
2022-11-20T12:06:46.398Z,67.38
2022-11-20T12:09:21.343Z,56.40
2022-11-20T12:11:59.947Z,54.90
2022-11-20T12:14:41.702Z,62.08
2022-11-20T12:17:14.574Z,58.33
2022-11-20T12:22:27.147Z,53.65
2022-11-20T12:25:17.683Z,58.00
2022-11-20T12:28:37.486Z,54.67
2022-11-20T12:31:34.893Z,57.60
2022-11-20T12:34:15.506Z,59.03
2022-11-20T12:36:53.160Z,55.53
2022-11-20T12:39:41.870Z,55.63
2022-11-20T12:42:41.373Z,57.05
2022-11-20T12:45:33.661Z,70.22
2022-11-20T12:48:43.549Z,67.50
2022-11-20T12:51:16.336Z,83.35
2022-11-20T12:54:09.701Z,86.03
2022-11-20T12:56:51.340Z,75.13
2022-11-20T12:59:33.575Z,75.20
2022-11-20T13:02:28.518Z,67.70
2022-11-20T13:05:22.556Z,67.97
2022-11-20T13:07:54.992Z,76.22
2022-11-20T13:10:36.924Z,74.07
2022-11-20T13:13:29.877Z,69.15
2022-11-20T13:16:02.277Z,72.53
2022-11-20T13:18:34.989Z,77.65
2022-11-20T13:23:29.829Z,71.45
2022-11-20T13:26:19.907Z,80.13
2022-11-20T13:29:03.949Z,86.63
2022-11-20T13:31:37.465Z,81.22
2022-11-20T13:34:25.652Z,76.90
2022-11-20T13:36:57.713Z,68.55
2022-11-20T13:39:34.825Z,75.97
2022-11-20T13:42:14.078Z,80.95
2022-11-20T13:44:52.151Z,71.40
2022-11-20T13:47:28.687Z,74.45
2022-11-20T13:49:58.885Z,72.05
2022-11-20T13:53:04.957Z,81.40
2022-11-20T13:55:52.118Z,77.97
2022-11-20T13:58:54.517Z,89.25
2022-11-20T14:01:29.982Z,93.15
2022-11-20T14:04:09.977Z,84.53
2022-11-20T14:06:46.414Z,93.13
2022-11-20T14:09:30.601Z,87.63
2022-11-20T14:11:58.733Z,78.72
2022-11-20T14:14:30.960Z,79.65
2022-11-20T14:17:28.810Z,84.47
2022-11-20T14:19:59.754Z,90.40
2022-11-20T14:22:28.335Z,88.03
2022-11-20T14:25:06.503Z,84.60
2022-11-20T14:27:42.229Z,88.55
2022-11-20T14:30:45.689Z,101.47
2022-11-20T14:33:16.314Z,111.20
2022-11-20T14:35:54.701Z,109.45
2022-11-20T14:38:32.318Z,104.68
2022-11-20T14:41:23.058Z,105.22
2022-11-20T14:44:00.795Z,106.65
2022-11-20T14:46:33.252Z,109.15
2022-11-20T14:49:05.791Z,108.05
2022-11-20T14:51:42.492Z,99.40
2022-11-20T14:54:18.462Z,112.07
2022-11-20T14:57:02.488Z,92.85
2022-11-20T14:59:35.703Z,109.53
2022-11-20T15:02:09.839Z,106.30
2022-11-20T15:05:07.376Z,100.40
2022-11-20T15:07:46.487Z,104.00
2022-11-20T15:10:22.425Z,111.63
2022-11-20T15:12:53.678Z,107.38
2022-11-20T15:15:36.464Z,105.88
2022-11-20T15:18:24.117Z,101.20
2022-11-20T15:20:52.840Z,107.20
2022-11-20T15:23:22.446Z,105.28
2022-11-20T15:25:52.744Z,117.03
2022-11-20T15:28:42.183Z,118.38
2022-11-20T15:31:19.656Z,113.28
2022-11-20T15:33:52.533Z,104.75
2022-11-20T15:36:19.995Z,101.75
2022-11-20T15:38:47.680Z,104.10
2022-11-20T15:41:17.709Z,108.38
2022-11-20T15:43:52.160Z,115.38
2022-11-20T15:46:27.822Z,116.18
2022-11-20T15:49:00.585Z,109.05
2022-11-20T15:51:47.589Z,114.65
2022-11-20T15:54:22.166Z,126.10
2022-11-20T15:56:55.460Z,126.50
2022-11-20T15:59:22.899Z,125.35
2022-11-20T16:01:52.619Z,106.85
2022-11-20T16:04:20.041Z,117.65
2022-11-20T16:06:51.826Z,112.88
2022-11-20T16:09:19.687Z,122.50
2022-11-20T16:11:47.119Z,128.98
2022-11-20T16:14:34.916Z,118.93
2022-11-20T16:17:04.539Z,131.02
2022-11-20T16:19:31.794Z,128.23
2022-11-20T16:22:03.114Z,133.95
2022-11-20T16:24:31.207Z,207.38
2022-11-20T16:26:58.535Z,184.40
2022-11-20T16:29:28.031Z,168.02
2022-11-20T16:31:55.840Z,153.25
2022-11-20T16:34:22.967Z,142.57
2022-11-20T16:36:50.354Z,139.95
2022-11-20T16:39:23.087Z,139.45
2022-11-20T16:41:53.403Z,138.18
2022-11-20T16:44:23.186Z,130.13
2022-11-20T16:46:50.777Z,122.78
2022-11-20T16:49:20.967Z,128.00
2022-11-20T16:51:50.629Z,131.63
2022-11-20T16:54:22.616Z,126.43
2022-11-20T16:56:54.218Z,128.63
2022-11-20T16:59:24.058Z,144.07
2022-11-20T17:01:51.517Z,117.03
2022-11-20T17:04:18.898Z,126.57
2022-11-20T17:06:51.381Z,127.85
2022-11-20T17:09:19.104Z,161.88
2022-11-20T17:11:49.391Z,130.25
2022-11-20T17:14:16.576Z,122.95
2022-11-20T17:16:49.294Z,122.55
2022-11-20T17:19:21.218Z,123.57
2022-11-20T17:21:48.809Z,123.35
2022-11-20T17:24:18.425Z,122.07
2022-11-20T17:26:49.445Z,125.70
2022-11-20T17:29:24.262Z,123.25
2022-11-20T17:31:55.048Z,137.10
2022-11-20T17:34:29.120Z,121.78
2022-11-20T17:36:56.562Z,128.73
2022-11-20T17:39:28.235Z,131.93
2022-11-20T17:42:14.256Z,131.73
2022-11-20T17:44:42.902Z,132.38
2022-11-20T17:47:12.827Z,128.02
2022-11-20T17:49:42.348Z,138.23
2022-11-20T17:52:09.808Z,127.88
2022-11-20T17:54:39.451Z,131.20
2022-11-20T17:57:28.556Z,132.88
2022-11-20T17:59:57.982Z,140.00
2022-11-20T18:02:27.892Z,145.32
2022-11-20T18:04:55.084Z,135.82
2022-11-20T18:07:25.260Z,141.98
2022-11-20T18:09:52.621Z,135.45
2022-11-20T18:12:20.071Z,126.78
2022-11-20T18:14:49.501Z,134.48
2022-11-20T18:17:21.736Z,147.52
2022-11-20T18:20:14.229Z,154.52
2022-11-20T18:22:40.367Z,197.32
2022-11-20T18:25:09.060Z,174.35
2022-11-20T18:27:39.254Z,179.75
2022-11-20T18:30:07.274Z,180.00
2022-11-20T18:32:36.177Z,165.02
2022-11-20T18:35:06.612Z,168.48
2022-11-20T18:37:34.081Z,154.77
2022-11-20T18:40:05.748Z,158.93
2022-11-20T18:42:52.023Z,147.82
2022-11-20T18:45:21.818Z,147.93
2022-11-20T18:47:52.012Z,154.90
2022-11-20T18:50:19.241Z,159.50
2022-11-20T18:52:48.018Z,149.50
2022-11-20T18:55:17.868Z,162.20
2022-11-20T18:57:45.441Z,144.68
2022-11-20T19:00:17.906Z,135.95
2022-11-20T19:02:45.536Z,150.77
2022-11-20T19:05:14.462Z,141.40
2022-11-20T19:07:42.628Z,142.20
2022-11-20T19:10:11.424Z,142.35
2022-11-20T19:12:43.638Z,146.80
2022-11-20T19:15:13.924Z,165.82
2022-11-20T19:17:41.572Z,161.07
2022-11-20T19:20:15.515Z,178.00
2022-11-20T19:22:43.069Z,154.25
2022-11-20T19:25:10.992Z,162.32
2022-11-20T19:27:40.656Z,163.20
2022-11-20T19:30:10.834Z,160.00
2022-11-20T19:32:38.270Z,156.80
2022-11-20T19:35:10.992Z,156.98
2022-11-20T19:37:45.666Z,161.25
2022-11-20T19:40:13.194Z,169.05
2022-11-20T19:42:40.759Z,170.32
2022-11-20T19:45:11.654Z,157.68
2022-11-20T19:48:06.480Z,165.85
2022-11-20T19:50:28.621Z,165.05
2022-11-20T19:52:59.041Z,158.57
2022-11-20T19:55:28.633Z,157.52
2022-11-20T19:57:56.610Z,163.57
2022-11-20T20:00:29.704Z,175.27
2022-11-20T20:03:09.637Z,162.52
2022-11-20T20:05:43.873Z,176.65
2022-11-20T20:08:17.402Z,166.68
2022-11-20T20:10:54.276Z,176.80
2022-11-20T20:13:31.246Z,159.00
2022-11-20T20:16:07.953Z,177.77
2022-11-20T20:18:38.152Z,188.15
2022-11-20T20:21:11.095Z,200.48
2022-11-20T20:23:52.154Z,178.65
2022-11-20T20:26:20.097Z,170.70
2022-11-20T20:28:52.762Z,179.07
2022-11-20T20:31:29.901Z,189.30
2022-11-20T20:34:06.787Z,169.85
2022-11-20T20:36:40.056Z,169.45
2022-11-20T20:39:13.607Z,158.65
2022-11-20T20:41:43.224Z,263.58
2022-11-20T20:44:36.520Z,183.38
2022-11-20T20:47:09.610Z,170.73
2022-11-20T20:49:37.221Z,159.70
2022-11-20T20:52:08.285Z,156.00
2022-11-20T20:54:42.267Z,198.60
2022-11-20T20:57:15.273Z,171.18
2022-11-20T20:59:45.356Z,143.75
2022-11-20T21:02:13.212Z,152.68
2022-11-20T21:04:41.268Z,153.07
2022-11-20T21:07:08.614Z,143.07
2022-11-20T21:09:37.867Z,150.77
2022-11-20T21:12:10.127Z,150.70
2022-11-20T21:14:47.104Z,140.95
2022-11-20T21:17:17.491Z,144.30
2022-11-20T21:19:48.249Z,148.05
2022-11-20T21:22:15.326Z,140.43
2022-11-20T21:24:45.767Z,152.25
2022-11-20T21:27:13.628Z,162.60
2022-11-20T21:29:41.565Z,143.32
2022-11-20T21:32:10.961Z,149.75
2022-11-20T21:34:41.029Z,146.20
2022-11-20T21:37:10.789Z,152.65
2022-11-20T21:39:50.750Z,148.10
2022-11-20T21:42:18.199Z,147.02
2022-11-20T21:47:22.352Z,143.93
2022-11-20T21:49:52.562Z,146.65
2022-11-20T21:52:29.967Z,163.20
2022-11-20T21:54:57.538Z,149.45
2022-11-20T21:57:30.957Z,161.90
2022-11-20T22:00:03.034Z,159.65
2022-11-20T22:02:43.735Z,165.55
2022-11-20T22:05:15.976Z,174.75
2022-11-20T22:07:48.587Z,167.75
2022-11-20T22:10:18.626Z,165.20
2022-11-20T22:12:46.083Z,183.48
2022-11-20T22:15:13.908Z,179.90
2022-11-20T22:18:00.407Z,202.68
2022-11-20T22:20:32.587Z,170.88
2022-11-20T22:23:04.192Z,175.95
2022-11-20T22:25:33.468Z,163.35
2022-11-20T22:28:00.943Z,168.43
2022-11-20T22:30:33.190Z,167.07
2022-11-20T22:33:00.341Z,163.20
2022-11-20T22:35:32.566Z,174.30
2022-11-20T22:38:04.268Z,171.85
2022-11-20T22:40:34.382Z,157.73
2022-11-20T22:43:06.808Z,154.55
2022-11-20T22:45:34.277Z,143.75
2022-11-20T22:48:01.323Z,136.40
2022-11-20T22:50:28.745Z,154.73
2022-11-20T22:52:56.140Z,146.75
2022-11-20T22:55:23.546Z,150.60
2022-11-20T22:57:53.042Z,153.77
2022-11-20T23:00:22.905Z,149.00
2022-11-20T23:02:52.965Z,150.45
2022-11-20T23:05:22.597Z,150.35
2022-11-20T23:07:52.741Z,150.55
2022-11-20T23:10:22.180Z,152.98
2022-11-20T23:12:57.089Z,147.25
2022-11-20T23:15:26.803Z,159.50
2022-11-20T23:17:56.543Z,138.38
2022-11-20T23:20:24.134Z,133.85
2022-11-20T23:22:51.202Z,137.25
2022-11-20T23:25:21.655Z,138.50
2022-11-20T23:27:49.078Z,130.13
2022-11-20T23:30:18.791Z,138.70
2022-11-20T23:32:48.646Z,139.23
2022-11-20T23:35:18.244Z,142.25
2022-11-20T23:37:45.304Z,140.55
2022-11-20T23:40:13.414Z,136.90
2022-11-20T23:43:00.612Z,138.57
2022-11-20T23:45:37.580Z,133.00
2022-11-20T23:48:05.164Z,132.63
2022-11-20T23:50:32.787Z,131.82
2022-11-20T23:53:04.881Z,140.57
2022-11-20T23:55:32.557Z,124.40
2022-11-20T23:58:03.345Z,135.60
